createdAt,value
2022-12-25T00:01:44.822Z,1.58
2022-12-25T00:04:12.253Z,2.53
2022-12-25T00:06:39.652Z,1.30
2022-12-25T00:09:07.220Z,1.23
2022-12-25T00:11:34.646Z,2.33
2022-12-25T00:14:01.953Z,1.57
2022-12-25T00:16:29.374Z,1.30
2022-12-25T00:18:59.028Z,0.90
2022-12-25T00:21:27.720Z,0.80
2022-12-25T00:23:56.697Z,1.33
2022-12-25T00:26:25.553Z,1.20
2022-12-25T00:28:54.335Z,1.40
2022-12-25T00:31:22.505Z,2.33
2022-12-25T00:33:51.625Z,1.10
2022-12-25T00:36:21.117Z,0.80
2022-12-25T00:38:48.661Z,1.00
2022-12-25T00:41:39.443Z,1.10
2022-12-25T00:44:08.916Z,1.60
2022-12-25T00:46:36.726Z,1.17
2022-12-25T00:49:04.407Z,0.90
2022-12-25T00:51:32.114Z,1.43
2022-12-25T00:53:59.729Z,1.30
2022-12-25T00:56:27.100Z,0.90
2022-12-25T00:58:55.181Z,0.90
2022-12-25T01:01:22.680Z,1.60
2022-12-25T01:03:50.169Z,0.60
2022-12-25T01:06:17.585Z,1.00
2022-12-25T01:09:04.987Z,1.27
2022-12-25T01:11:32.662Z,0.90
2022-12-25T01:14:00.114Z,1.50
2022-12-25T01:16:27.660Z,1.23
2022-12-25T01:18:55.529Z,0.93
2022-12-25T01:21:23.722Z,0.77
2022-12-25T01:23:53.104Z,1.57
2022-12-25T01:26:22.774Z,0.73
2022-12-25T01:28:51.107Z,0.60
2022-12-25T01:31:21.228Z,0.87
2022-12-25T01:33:48.797Z,1.57
2022-12-25T01:36:26.202Z,0.90
2022-12-25T01:38:54.758Z,0.60
2022-12-25T01:41:24.777Z,0.87
2022-12-25T01:44:08.829Z,1.23
2022-12-25T01:46:36.716Z,0.87
2022-12-25T01:49:12.795Z,0.70
2022-12-25T01:52:03.181Z,0.87
2022-12-25T01:54:34.627Z,1.20
2022-12-25T01:57:06.766Z,0.77
2022-12-25T02:02:04.123Z,0.70
2022-12-25T02:04:41.434Z,0.93
2022-12-25T02:07:20.470Z,0.97
2022-12-25T02:09:48.581Z,0.60
2022-12-25T02:12:25.999Z,1.07
2022-12-25T02:15:04.609Z,0.70
2022-12-25T02:17:55.239Z,1.00
2022-12-25T02:21:02.076Z,0.70
2022-12-25T02:23:54.517Z,1.03
2022-12-25T02:29:18.169Z,0.73
2022-12-25T02:31:55.394Z,0.50
2022-12-25T02:35:03.204Z,0.57
2022-12-25T02:37:40.472Z,0.80
2022-12-25T02:40:19.506Z,1.10
2022-12-25T02:43:13.473Z,0.60
2022-12-25T02:46:18.438Z,1.30
2022-12-25T02:49:09.298Z,0.97
2022-12-25T02:51:59.614Z,1.10
2022-12-25T02:54:56.120Z,1.17
2022-12-25T02:57:46.527Z,1.20
2022-12-25T03:00:33.956Z,0.80
2022-12-25T03:03:23.192Z,1.23
2022-12-25T03:06:13.226Z,0.90
2022-12-25T03:08:42.805Z,1.03
2022-12-25T03:11:30.666Z,1.50
2022-12-25T03:14:26.181Z,0.70
2022-12-25T03:16:56.708Z,0.83
2022-12-25T03:19:47.132Z,0.90
2022-12-25T03:22:42.099Z,0.63
2022-12-25T03:25:29.122Z,0.90
2022-12-25T03:27:58.100Z,1.07
2022-12-25T03:31:02.138Z,1.60
2022-12-25T03:34:29.222Z,1.33
2022-12-25T03:37:46.294Z,0.83
2022-12-25T03:40:59.182Z,0.80
2022-12-25T03:43:59.191Z,1.30
2022-12-25T03:46:51.130Z,0.97
2022-12-25T03:49:45.136Z,0.90
2022-12-25T03:52:34.276Z,1.00
2022-12-25T03:55:26.225Z,1.00
2022-12-25T03:58:12.389Z,1.10
2022-12-25T04:00:58.329Z,0.90
2022-12-25T04:03:44.103Z,1.23
2022-12-25T04:06:30.051Z,1.17
2022-12-25T04:09:15.715Z,1.40
2022-12-25T04:12:03.104Z,2.10
2022-12-25T04:14:49.112Z,1.73
2022-12-25T04:17:35.012Z,0.70
2022-12-25T04:20:21.270Z,1.50
2022-12-25T04:23:07.226Z,1.00
2022-12-25T04:25:52.958Z,1.33
2022-12-25T04:28:38.857Z,1.10
2022-12-25T04:31:25.242Z,1.40
2022-12-25T04:34:11.258Z,1.00
2022-12-25T04:36:38.795Z,1.77
2022-12-25T04:39:06.314Z,1.50
2022-12-25T04:41:33.639Z,1.50
2022-12-25T04:44:00.960Z,1.03
2022-12-25T04:46:28.331Z,1.00
2022-12-25T04:48:55.689Z,0.77
2022-12-25T04:51:25.015Z,0.77
2022-12-25T04:53:53.873Z,0.90
2022-12-25T04:56:22.112Z,0.80
2022-12-25T04:58:49.602Z,0.93
2022-12-25T05:01:17.108Z,1.37
2022-12-25T05:03:44.719Z,1.00
2022-12-25T05:06:12.053Z,1.30
2022-12-25T05:08:39.460Z,1.47
2022-12-25T05:11:09.330Z,1.37
2022-12-25T05:13:37.214Z,1.13
2022-12-25T05:16:06.574Z,1.00
2022-12-25T05:18:34.019Z,0.83
2022-12-25T05:21:01.465Z,1.10
2022-12-25T05:23:28.816Z,1.30
2022-12-25T05:25:56.377Z,1.20
2022-12-25T05:28:23.741Z,0.80
2022-12-25T05:30:51.122Z,1.20
2022-12-25T05:33:18.660Z,1.10
2022-12-25T05:35:45.919Z,1.30
2022-12-25T05:38:13.292Z,1.10
2022-12-25T05:40:43.583Z,0.93
2022-12-25T05:43:10.973Z,1.03
2022-12-25T05:45:38.414Z,1.10
2022-12-25T05:48:06.067Z,1.33
2022-12-25T05:50:33.468Z,0.87
2022-12-25T05:53:10.866Z,1.07
2022-12-25T05:55:40.149Z,1.23
2022-12-25T05:58:08.663Z,1.40
2022-12-25T06:00:36.097Z,1.00
2022-12-25T06:03:04.282Z,1.70
2022-12-25T06:05:32.179Z,1.43
2022-12-25T06:07:59.554Z,1.43
2022-12-25T06:10:26.893Z,1.50
2022-12-25T06:12:55.200Z,1.67
2022-12-25T06:15:22.599Z,0.80
2022-12-25T06:17:49.851Z,1.40
2022-12-25T06:20:17.247Z,1.53
2022-12-25T06:22:44.579Z,1.63
2022-12-25T06:25:12.163Z,1.17
2022-12-25T06:27:39.445Z,1.70
2022-12-25T06:30:07.891Z,0.93
2022-12-25T06:32:35.217Z,1.37
2022-12-25T06:35:02.580Z,1.00
2022-12-25T06:37:30.996Z,1.00
2022-12-25T06:39:58.309Z,0.73
2022-12-25T06:42:25.627Z,1.07
2022-12-25T06:44:53.376Z,1.03
2022-12-25T06:47:20.689Z,1.37
2022-12-25T06:49:48.038Z,1.27
2022-12-25T06:52:15.487Z,1.30
2022-12-25T06:54:42.863Z,1.23
2022-12-25T06:57:10.718Z,2.00
2022-12-25T06:59:38.059Z,1.20
2022-12-25T07:02:06.237Z,1.70
2022-12-25T07:04:42.180Z,1.50
2022-12-25T07:07:10.160Z,1.30
2022-12-25T07:09:42.416Z,1.20
2022-12-25T07:12:18.759Z,1.83
2022-12-25T07:14:49.062Z,1.07
2022-12-25T07:17:17.455Z,1.87
2022-12-25T07:19:46.036Z,0.80
2022-12-25T07:22:15.328Z,1.60
2022-12-25T07:24:42.932Z,1.63
2022-12-25T07:27:10.325Z,1.90
2022-12-25T07:29:37.756Z,1.53
2022-12-25T07:32:05.674Z,1.27
2022-12-25T07:34:33.365Z,1.67
2022-12-25T07:37:00.781Z,2.07
2022-12-25T07:39:28.249Z,1.60
2022-12-25T07:41:55.543Z,0.90
2022-12-25T07:44:23.079Z,1.80
2022-12-25T07:46:50.383Z,0.90
2022-12-25T07:49:17.871Z,1.80
2022-12-25T07:51:45.262Z,1.67
2022-12-25T07:54:12.611Z,1.83
2022-12-25T07:56:39.984Z,2.03
2022-12-25T07:59:07.378Z,2.07
2022-12-25T08:01:34.970Z,2.03
2022-12-25T08:04:03.075Z,2.00
2022-12-25T08:06:33.027Z,2.50
2022-12-25T08:09:06.587Z,2.27
2022-12-25T08:11:33.918Z,3.03
2022-12-25T08:14:01.331Z,3.17
2022-12-25T08:16:28.702Z,2.83
2022-12-25T08:18:56.117Z,3.07
2022-12-25T08:21:23.438Z,3.10
2022-12-25T08:23:50.752Z,3.70
2022-12-25T08:26:21.609Z,2.50
2022-12-25T08:28:49.539Z,3.07
2022-12-25T08:31:27.128Z,2.90
2022-12-25T08:33:56.948Z,2.70
2022-12-25T08:36:24.440Z,2.60
2022-12-25T08:38:55.590Z,2.67
2022-12-25T08:41:26.795Z,3.27
2022-12-25T08:43:54.229Z,3.20
2022-12-25T08:46:22.044Z,3.27
2022-12-25T08:48:50.384Z,2.70
2022-12-25T08:51:20.655Z,3.17
2022-12-25T08:53:49.987Z,2.90
2022-12-25T08:56:18.418Z,2.83
2022-12-25T08:58:46.250Z,2.87
2022-12-25T09:01:13.704Z,3.47
2022-12-25T09:03:41.538Z,3.87
2022-12-25T09:06:11.795Z,3.17
2022-12-25T09:08:45.869Z,3.73
2022-12-25T09:11:16.324Z,4.73
2022-12-25T09:13:43.764Z,3.83
2022-12-25T09:16:13.957Z,3.60
2022-12-25T09:18:41.677Z,3.80
2022-12-25T09:21:12.035Z,3.10
2022-12-25T09:23:39.697Z,3.10
2022-12-25T09:26:11.125Z,2.97
2022-12-25T09:28:38.511Z,2.83
2022-12-25T09:31:06.259Z,3.97
2022-12-25T09:33:33.749Z,6.07
2022-12-25T09:36:06.563Z,5.17
2022-12-25T09:38:34.818Z,4.50
2022-12-25T09:41:22.350Z,3.27
2022-12-25T09:44:21.007Z,2.97
2022-12-25T09:46:56.886Z,4.10
2022-12-25T09:49:54.256Z,4.00
2022-12-25T09:52:46.403Z,3.60
2022-12-25T09:55:21.221Z,3.33
2022-12-25T09:57:52.410Z,3.35
2022-12-25T10:00:25.271Z,3.05
2022-12-25T10:03:23.807Z,2.15
2022-12-25T10:06:27.142Z,2.28
2022-12-25T10:09:13.455Z,2.30
2022-12-25T10:12:03.239Z,2.65
2022-12-25T10:14:45.669Z,2.67
2022-12-25T10:20:51.117Z,2.25
2022-12-25T10:25:55.641Z,2.47
2022-12-25T10:28:33.633Z,1.92
2022-12-25T10:31:15.033Z,2.13
2022-12-25T10:33:42.521Z,2.65
2022-12-25T10:36:09.899Z,2.60
2022-12-25T10:38:37.399Z,2.00
2022-12-25T10:41:43.372Z,2.55
2022-12-25T10:44:16.759Z,2.63
2022-12-25T10:46:49.776Z,4.07
2022-12-25T10:49:20.433Z,2.08
2022-12-25T10:51:48.076Z,2.92
2022-12-25T10:54:30.056Z,3.15
2022-12-25T10:57:03.606Z,2.83
2022-12-25T10:59:35.773Z,2.15
2022-12-25T11:04:52.574Z,3.03
2022-12-25T11:07:26.089Z,3.15
2022-12-25T11:10:05.755Z,2.72
2022-12-25T11:12:37.968Z,2.08
2022-12-25T11:15:27.677Z,2.30
2022-12-25T11:17:55.016Z,2.15
2022-12-25T11:20:23.110Z,2.40
2022-12-25T11:22:50.868Z,2.92
2022-12-25T11:25:28.409Z,2.15
2022-12-25T11:28:04.975Z,2.42
2022-12-25T11:30:33.874Z,1.88
2022-12-25T11:33:05.797Z,1.80
2022-12-25T11:35:45.915Z,2.25
2022-12-25T11:38:13.590Z,2.00
2022-12-25T11:40:47.086Z,1.88
2022-12-25T11:43:23.638Z,1.75
2022-12-25T11:46:28.731Z,1.80
2022-12-25T11:49:06.740Z,2.53
2022-12-25T11:51:37.291Z,2.83
2022-12-25T11:54:18.014Z,2.53
2022-12-25T11:56:45.460Z,2.47
2022-12-25T11:59:27.435Z,2.53
2022-12-25T12:02:41.405Z,2.03
2022-12-25T12:05:16.520Z,2.03
2022-12-25T12:07:58.954Z,2.17
2022-12-25T12:10:46.016Z,2.00
2022-12-25T12:13:53.088Z,2.50
2022-12-25T12:16:20.476Z,2.13
2022-12-25T12:18:50.602Z,2.10
2022-12-25T12:21:30.406Z,2.70
2022-12-25T12:24:16.102Z,2.65
2022-12-25T12:26:46.176Z,2.00
2022-12-25T12:29:40.706Z,1.98
2022-12-25T12:32:40.979Z,2.35
2022-12-25T12:35:24.457Z,1.67
2022-12-25T12:37:56.689Z,1.67
2022-12-25T12:41:04.114Z,1.45
2022-12-25T12:43:59.877Z,1.80
2022-12-25T12:46:32.075Z,1.60
2022-12-25T12:49:30.321Z,2.90
2022-12-25T12:52:25.332Z,2.03
2022-12-25T12:55:08.484Z,2.08
2022-12-25T12:57:39.790Z,2.22
2022-12-25T13:00:19.498Z,2.58
2022-12-25T13:03:20.778Z,1.75
2022-12-25T13:05:58.004Z,2.60
2022-12-25T13:09:17.022Z,3.05
2022-12-25T13:11:44.962Z,1.98
2022-12-25T13:14:16.384Z,1.83
2022-12-25T13:16:46.640Z,1.95
2022-12-25T13:19:18.224Z,1.75
2022-12-25T13:22:06.601Z,1.98
2022-12-25T13:24:36.936Z,2.40
2022-12-25T13:27:36.408Z,1.77
2022-12-25T13:30:19.064Z,1.40
2022-12-25T13:32:46.707Z,2.70
2022-12-25T13:35:15.677Z,1.73
2022-12-25T13:37:44.071Z,3.08
2022-12-25T13:40:26.035Z,1.75
2022-12-25T13:43:00.439Z,1.98
2022-12-25T13:45:30.104Z,2.00
2022-12-25T13:47:57.634Z,1.70
2022-12-25T13:50:29.853Z,2.55
2022-12-25T13:52:58.931Z,2.05
2022-12-25T13:55:29.323Z,1.63
2022-12-25T13:58:03.477Z,2.85
2022-12-25T14:00:49.638Z,2.60
2022-12-25T14:03:24.021Z,1.77
2022-12-25T14:05:59.511Z,2.55
2022-12-25T14:08:31.636Z,2.83
2022-12-25T14:13:30.556Z,2.13
2022-12-25T14:15:58.232Z,2.65
2022-12-25T14:18:31.344Z,2.65
2022-12-25T14:21:16.174Z,2.20
2022-12-25T14:23:46.573Z,1.98
2022-12-25T14:26:26.133Z,2.60
2022-12-25T14:29:18.635Z,2.50
2022-12-25T14:31:48.114Z,3.08
2022-12-25T14:34:20.665Z,2.00
2022-12-25T14:36:48.705Z,2.03
2022-12-25T14:39:36.012Z,2.67
2022-12-25T14:42:30.937Z,2.30
2022-12-25T14:45:24.951Z,3.20
2022-12-25T14:47:54.390Z,2.50
2022-12-25T14:50:31.873Z,3.15
2022-12-25T14:52:59.995Z,2.35
2022-12-25T14:55:29.368Z,2.58
2022-12-25T14:58:05.222Z,2.13
2022-12-25T15:00:38.041Z,2.17
2022-12-25T15:03:17.265Z,2.33
2022-12-25T15:05:44.899Z,2.80
2022-12-25T15:08:23.992Z,1.95
2022-12-25T15:11:01.218Z,3.28
2022-12-25T15:13:30.966Z,2.85
2022-12-25T15:16:13.538Z,2.70
2022-12-25T15:18:44.224Z,2.00
2022-12-25T15:21:24.467Z,2.47
2022-12-25T15:23:54.270Z,2.10
2022-12-25T15:26:21.745Z,2.95
2022-12-25T15:28:49.190Z,3.33
2022-12-25T15:31:27.829Z,2.65
2022-12-25T15:33:57.579Z,2.50
2022-12-25T15:36:25.949Z,2.90
2022-12-25T15:38:53.780Z,2.00
2022-12-25T15:41:47.669Z,3.55
2022-12-25T15:44:16.165Z,2.53
2022-12-25T15:46:43.698Z,3.05
2022-12-25T15:49:11.252Z,2.15
2022-12-25T15:51:39.929Z,2.58
2022-12-25T15:54:07.580Z,2.55
2022-12-25T15:56:45.481Z,2.88
2022-12-25T15:59:14.636Z,3.13
2022-12-25T16:01:46.230Z,2.70
2022-12-25T16:04:13.843Z,2.47
2022-12-25T16:06:41.360Z,2.47
2022-12-25T16:09:13.247Z,2.72
2022-12-25T16:11:40.882Z,2.10
2022-12-25T16:14:08.581Z,2.58
2022-12-25T16:16:36.258Z,2.65
2022-12-25T16:19:04.455Z,2.60
2022-12-25T16:21:39.342Z,4.40
2022-12-25T16:24:07.566Z,5.18
2022-12-25T16:26:35.333Z,5.07
2022-12-25T16:29:06.918Z,4.20
2022-12-25T16:31:38.426Z,4.68
2022-12-25T16:34:07.089Z,4.07
2022-12-25T16:36:35.404Z,4.43
2022-12-25T16:39:04.472Z,4.32
2022-12-25T16:41:32.327Z,4.22
2022-12-25T16:44:03.077Z,3.92
2022-12-25T16:46:30.407Z,4.47
2022-12-25T16:48:57.780Z,4.15
2022-12-25T16:51:25.166Z,3.03
2022-12-25T16:53:53.459Z,3.85
2022-12-25T16:56:21.111Z,2.90
2022-12-25T16:58:48.633Z,3.28
2022-12-25T17:01:18.707Z,3.40
2022-12-25T17:03:47.294Z,3.20
2022-12-25T17:06:25.912Z,4.05
2022-12-25T17:08:57.568Z,4.38
2022-12-25T17:11:29.492Z,3.67
2022-12-25T17:13:59.843Z,3.55
2022-12-25T17:16:29.332Z,4.07
2022-12-25T17:19:01.448Z,4.32
2022-12-25T17:24:02.304Z,3.30
2022-12-25T17:26:32.691Z,4.22
2022-12-25T17:29:00.653Z,4.57
2022-12-25T17:31:28.797Z,4.53
2022-12-25T17:33:56.422Z,4.60
2022-12-25T17:36:24.140Z,3.60
2022-12-25T17:38:51.557Z,3.85
2022-12-25T17:41:20.097Z,4.20
2022-12-25T17:43:48.166Z,4.38
2022-12-25T17:46:21.275Z,3.72
2022-12-25T17:48:50.222Z,3.25
2022-12-25T17:51:21.363Z,3.58
2022-12-25T17:53:51.357Z,4.80
2022-12-25T17:56:19.698Z,3.17
2022-12-25T17:58:55.933Z,4.00
2022-12-25T18:01:24.695Z,3.88
2022-12-25T18:03:52.624Z,4.65
2022-12-25T18:06:23.615Z,4.70
2022-12-25T18:08:51.248Z,5.10
2022-12-25T18:11:23.443Z,6.03
2022-12-25T18:13:52.295Z,5.82
2022-12-25T18:16:22.170Z,4.75
2022-12-25T18:18:52.658Z,4.10
2022-12-25T18:21:22.162Z,4.53
2022-12-25T18:23:50.389Z,5.22
2022-12-25T18:26:19.383Z,4.20
2022-12-25T18:28:48.106Z,4.20
2022-12-25T18:31:18.959Z,4.75
2022-12-25T18:33:46.742Z,4.55
2022-12-25T18:36:15.964Z,4.32
2022-12-25T18:38:43.901Z,4.00
2022-12-25T18:41:11.622Z,4.35
2022-12-25T18:43:53.664Z,4.68
2022-12-25T18:46:25.725Z,4.18
2022-12-25T18:48:54.694Z,3.85
2022-12-25T18:51:22.808Z,3.60
2022-12-25T18:53:51.165Z,3.85
2022-12-25T18:56:20.360Z,4.38
2022-12-25T18:58:48.468Z,3.20
2022-12-25T19:01:22.059Z,4.75
2022-12-25T19:03:51.303Z,3.33
2022-12-25T19:06:25.267Z,4.00
2022-12-25T19:08:53.607Z,3.63
2022-12-25T19:11:21.540Z,3.90
2022-12-25T19:13:49.049Z,3.42
2022-12-25T19:16:17.335Z,3.33
2022-12-25T19:18:46.123Z,4.28
2022-12-25T19:21:13.432Z,3.95
2022-12-25T19:23:40.876Z,3.55
2022-12-25T19:26:10.264Z,3.50
2022-12-25T19:28:38.805Z,3.22
2022-12-25T19:31:08.020Z,3.08
2022-12-25T19:33:37.234Z,3.83
2022-12-25T19:36:08.073Z,3.53
2022-12-25T19:38:36.135Z,3.78
2022-12-25T19:41:14.691Z,3.63
2022-12-25T19:43:43.919Z,3.03
2022-12-25T19:46:17.746Z,3.03
2022-12-25T19:48:45.499Z,3.65
2022-12-25T19:51:33.963Z,2.78
2022-12-25T19:54:03.160Z,3.83
2022-12-25T19:56:31.291Z,3.63
2022-12-25T19:58:59.311Z,2.83
2022-12-25T20:01:28.453Z,2.70
2022-12-25T20:03:56.310Z,3.47
2022-12-25T20:06:27.290Z,2.83
2022-12-25T20:08:57.887Z,2.20
2022-12-25T20:11:28.154Z,2.60
2022-12-25T20:13:55.740Z,2.65
2022-12-25T20:16:24.050Z,2.25
2022-12-25T20:18:51.832Z,3.03
2022-12-25T20:21:22.344Z,2.70
2022-12-25T20:23:51.884Z,2.55
2022-12-25T20:26:22.230Z,1.95
2022-12-25T20:28:49.624Z,2.40
2022-12-25T20:31:20.398Z,3.03
2022-12-25T20:33:47.860Z,2.38
2022-12-25T20:36:16.015Z,2.38
2022-12-25T20:38:43.347Z,2.70
2022-12-25T20:41:30.062Z,2.05
2022-12-25T20:43:58.511Z,2.33
2022-12-25T20:46:26.461Z,1.80
2022-12-25T20:48:54.412Z,1.90
2022-12-25T20:51:24.413Z,2.30
2022-12-25T20:53:54.038Z,2.50
2022-12-25T20:56:24.646Z,2.65
2022-12-25T20:58:57.314Z,3.20
2022-12-25T21:01:25.501Z,3.10
2022-12-25T21:03:54.012Z,2.38
2022-12-25T21:06:22.586Z,2.00
2022-12-25T21:08:50.300Z,2.05
2022-12-25T21:11:18.141Z,2.30
2022-12-25T21:13:46.780Z,1.73
2022-12-25T21:16:18.999Z,1.48
2022-12-25T21:18:46.869Z,2.00
2022-12-25T21:21:14.948Z,1.73
2022-12-25T21:23:42.378Z,1.63
2022-12-25T21:26:27.221Z,2.35
2022-12-25T21:28:57.541Z,1.23
2022-12-25T21:31:25.214Z,1.75
2022-12-25T21:33:55.033Z,1.73
2022-12-25T21:36:28.531Z,2.10
2022-12-25T21:39:04.413Z,2.50
2022-12-25T21:41:33.013Z,1.35
2022-12-25T21:44:00.771Z,2.03
2022-12-25T21:46:29.021Z,2.83
2022-12-25T21:48:57.301Z,2.28
2022-12-25T21:51:46.687Z,2.10
2022-12-25T21:54:15.479Z,2.40
2022-12-25T21:56:45.589Z,1.95
2022-12-25T21:59:20.276Z,2.15
2022-12-25T22:01:48.829Z,1.85
2022-12-25T22:04:17.556Z,2.10
2022-12-25T22:07:04.264Z,2.00
2022-12-25T22:09:32.129Z,1.85
2022-12-25T22:12:18.770Z,2.65
2022-12-25T22:14:55.498Z,2.30
2022-12-25T22:17:50.077Z,3.17
2022-12-25T22:20:25.578Z,1.92
2022-12-25T22:22:53.727Z,2.38
2022-12-25T22:25:22.208Z,2.10
2022-12-25T22:27:50.693Z,2.53
2022-12-25T22:30:20.978Z,2.92
2022-12-25T22:32:49.371Z,2.80
2022-12-25T22:35:17.618Z,2.45
2022-12-25T22:37:45.299Z,2.38
2022-12-25T22:40:15.408Z,2.50
2022-12-25T22:42:42.780Z,2.15
2022-12-25T22:45:11.258Z,1.92
2022-12-25T22:47:38.645Z,1.83
2022-12-25T22:50:06.824Z,2.65
2022-12-25T22:52:34.341Z,1.80
2022-12-25T22:55:02.585Z,2.35
2022-12-25T22:57:29.921Z,2.22
2022-12-25T22:59:57.295Z,2.35
2022-12-25T23:02:24.851Z,2.20
2022-12-25T23:04:53.717Z,2.53
2022-12-25T23:07:21.254Z,2.47
2022-12-25T23:09:48.619Z,1.90
2022-12-25T23:12:34.400Z,3.75
2022-12-25T23:15:01.775Z,2.75
2022-12-25T23:17:47.539Z,2.88
2022-12-25T23:20:34.071Z,1.92
2022-12-25T23:23:20.346Z,2.17
2022-12-25T23:26:06.254Z,2.17
2022-12-25T23:28:53.144Z,2.17
2022-12-25T23:31:24.659Z,2.45
2022-12-25T23:33:52.093Z,2.40
2022-12-25T23:36:19.471Z,2.17
2022-12-25T23:38:47.104Z,2.45
2022-12-25T23:41:14.439Z,3.05
2022-12-25T23:43:42.084Z,2.20
2022-12-25T23:46:09.492Z,2.15
2022-12-25T23:48:36.933Z,2.25
2022-12-25T23:51:05.742Z,2.78
2022-12-25T23:53:33.769Z,2.20
2022-12-25T23:56:01.613Z,2.35
2022-12-25T23:58:29.396Z,2.30
